Time,TemperatureF,DewpointF,PressureIn,WindDirection,WindDirectionDegrees,WindSpeedMPH,WindSpeedGustMPH,Humidity,HourlyPrecipIn,Conditions,Clouds,dailyrainin,SoftwareType,DateUTC
2013-01-07 00:01:00,19.9,14.4,30.08,South,179,20.7,20.7,79,0.00,CLR,,0.00,WeatherDisplay:10.37,2013-01-07 06:01:00,
2013-01-07 00:06:00,20.3,14.8,30.07,South,178,18.0,18.0,79,0.00,CLR,,0.00,WeatherDisplay:10.37,2013-01-07 06:06:00,
2013-01-07 00:11:00,20.7,15.2,30.06,SE,140,15.0,15.0,79,0.00,CLR,,0.00,WeatherDisplay:10.37,2013-01-07 06:11:00,
2013-01-07 00:16:00,21.0,15.2,30.06,SSW,200,18.4,18.4,78,0.00,CLR,,0.00,WeatherDisplay:10.37,2013-01-07 06:16:00,
2013-01-07 00:21:00,21.1,15.3,30.05,South,184,6.9,6.9,78,0.00,CLR,,0.00,WeatherDisplay:10.37,2013-01-07 06:21:00,
2013-01-07 00:26:00,21.4,15.9,30.05,SSW,213,16.1,16.1,79,0.00,CLR,,0.00,WeatherDisplay:10.37,2013-01-07 06:26:00,
2013-01-07 00:31:00,21.7,16.2,30.04,SSE,159,15.0,15.0,79,0.00,CLR,,0.00,WeatherDisplay:10.37,2013-01-07 06:31:00,
2013-01-07 00:36:00,22.0,16.2,30.04,South,172,23.0,23.0,78,0.00,CLR,,0.00,WeatherDisplay:10.37,2013-01-07 06:36:00,
2013-01-07 00:41:00,22.2,16.4,30.03,South,186,10.4,10.4,78,0.00,CLR,,0.00,WeatherDisplay:10.37,2013-01-07 06:41:00,
2013-01-07 00:46:00,22.4,16.6,30.03,SSE,165,10.4,10.4,78,0.00,CLR,,0.00,WeatherDisplay:10.37,2013-01-07 06:46:00,
2013-01-07 00:51:00,22.8,17.0,30.02,ESE,102,11.5,11.5,78,0.00,CLR,,0.00,WeatherDisplay:10.37,2013-01-07 06:51:00,
2013-01-07 00:56:00,23.3,17.5,30.02,South,180,10.4,10.4,78,0.00,CLR,,0.00,WeatherDisplay:10.37,2013-01-07 06:56:00,
2013-01-07 01:01:00,24.0,18.1,30.01,SSE,166,24.2,24.2,78,0.00,CLR,,0.00,WeatherDisplay:10.37,2013-01-07 07:01:00,
2013-01-07 01:06:00,24.4,18.2,30.01,SSW,192,14.0,14.0,77,0.00,CLR,,0.00,WeatherDisplay:10.37,2013-01-07 07:06:00,
2013-01-07 01:11:00,24.6,18.1,30.01,SW,215,6.9,6.9,76,0.00,CLR,,0.00,WeatherDisplay:10.37,2013-01-07 07:11:00,
2013-01-07 01:16:00,24.8,18.3,30.00,South,183,15.0,15.0,76,0.00,CLR,,0.00,WeatherDisplay:10.37,2013-01-07 07:16:00,
2013-01-07 01:21:00,25.1,18.6,30.00,SSW,198,13.8,13.8,76,0.00,CLR,,0.00,WeatherDisplay:10.37,2013-01-07 07:21:00,
2013-01-07 01:26:00,25.5,19.0,30.00,SE,142,17.3,17.3,76,0.00,CLR,,0.00,WeatherDisplay:10.37,2013-01-07 07:26:00,
2013-01-07 01:31:00,26.0,19.2,30.00,SSW,202,10.4,10.4,75,0.00,CLR,,0.00,WeatherDisplay:10.37,2013-01-07 07:31:00,
2013-01-07 01:36:00,26.2,19.4,29.99,SSE,148,17.3,17.3,75,0.00,CLR,,0.00,WeatherDisplay:10.37,2013-01-07 07:36:00,
2013-01-07 01:41:00,26.5,19.3,29.99,South,185,12.7,12.7,74,0.00,CLR,,0.00,WeatherDisplay:10.37,2013-01-07 07:41:00,
2013-01-07 01:46:00,26.9,19.7,29.99,South,175,11.5,11.5,74,0.00,CLR,,0.00,WeatherDisplay:10.37,2013-01-07 07:46:00,
2013-01-07 01:51:00,27.4,19.9,29.99,SSE,168,18.4,18.4,73,0.00,CLR,,0.00,WeatherDisplay:10.37,2013-01-07 07:51:00,
2013-01-07 01:56:00,27.5,19.7,30.00,South,170,10.4,10.4,72,0.00,CLR,,0.00,WeatherDisplay:10.37,2013-01-07 07:56:00,
2013-01-07 02:01:00,27.8,19.9,29.99,SW,214,11.5,11.5,72,0.00,CLR,,0.00,WeatherDisplay:10.37,2013-01-07 08:01:00,
2013-01-07 02:06:00,27.8,19.9,29.99,SSW,194,15.0,15.0,72,0.00,CLR,,0.00,WeatherDisplay:10.37,2013-01-07 08:06:00,
2013-01-07 02:11:00,27.8,19.9,29.99,South,182,21.9,21.9,72,0.00,CLR,,0.00,WeatherDisplay:10.37,2013-01-07 08:11:00,
2013-01-07 02:16:00,27.9,20.0,29.98,South,169,6.9,9.0,72,0.00,CLR,,0.00,WeatherDisplay:10.37,2013-01-07 08:16:00,
2013-01-07 02:21:00,27.9,19.7,29.98,South,181,5.8,5.8,71,0.00,CLR,,0.00,WeatherDisplay:10.37,2013-01-07 08:21:00,
2013-01-07 02:26:00,28.0,20.1,29.98,SSW,200,12.7,12.7,72,0.00,CLR,,0.00,WeatherDisplay:10.37,2013-01-07 08:26:00,
2013-01-07 02:31:00,28.3,20.1,29.98,SW,221,17.3,17.3,71,0.00,CLR,,0.00,WeatherDisplay:10.37,2013-01-07 08:31:00,
2013-01-07 02:36:00,28.8,20.2,29.97,SSW,197,18.4,18.4,70,0.00,CLR,,0.00,WeatherDisplay:10.37,2013-01-07 08:36:00,
2013-01-07 02:41:00,29.2,20.6,29.97,South,188,18.4,18.4,70,0.00,CLR,,0.00,WeatherDisplay:10.37,2013-01-07 08:41:00,
2013-01-07 02:46:00,29.5,20.6,29.97,SSW,212,18.4,18.4,69,0.00,CLR,,0.00,WeatherDisplay:10.37,2013-01-07 08:46:00,
2013-01-07 02:51:00,29.4,20.5,29.97,South,180,16.1,16.1,69,0.00,CLR,,0.00,WeatherDisplay:10.37,2013-01-07 08:51:00,
2013-01-07 02:56:00,29.3,20.4,29.97,SW,223,11.5,11.5,69,0.00,CLR,,0.00,WeatherDisplay:10.37,2013-01-07 08:56:00,
2013-01-07 03:01:00,29.4,20.5,29.97,South,191,19.6,19.6,69,0.00,CLR,,0.00,WeatherDisplay:10.37,2013-01-07 09:01:00,
2013-01-07 03:06:00,29.6,20.3,29.96,South,190,10.4,10.4,68,0.00,CLR,,0.00,WeatherDisplay:10.37,2013-01-07 09:06:00,
2013-01-07 03:11:00,29.9,20.6,29.97,WSW,243,16.1,16.1,68,0.00,CLR,,0.00,WeatherDisplay:10.37,2013-01-07 09:11:00,
2013-01-07 03:16:00,29.9,20.6,29.97,SW,219,19.6,19.6,68,0.00,CLR,,0.00,WeatherDisplay:10.37,2013-01-07 09:16:00,
2013-01-07 03:22:00,30.1,20.8,29.96,SSW,198,12.7,12.7,68,0.00,CLR,,0.00,WeatherDisplay:10.37,2013-01-07 09:22:00,
2013-01-07 03:27:00,30.0,20.7,29.97,SW,217,19.6,19.6,68,0.00,CLR,,0.00,WeatherDisplay:10.37,2013-01-07 09:27:00,
2013-01-07 03:31:00,29.8,20.5,29.97,SW,219,18.4,18.4,68,0.00,CLR,,0.00,WeatherDisplay:10.37,2013-01-07 09:31:00,
2013-01-07 03:37:00,29.6,20.3,29.97,WSW,242,9.2,9.2,68,0.00,CLR,,0.00,WeatherDisplay:10.37,2013-01-07 09:37:00,
2013-01-07 03:42:00,29.6,20.7,29.96,SSW,207,12.7,12.7,69,0.00,CLR,,0.00,WeatherDisplay:10.37,2013-01-07 09:42:00,
2013-01-07 03:47:00,29.7,20.8,29.96,SW,219,18.4,18.4,69,0.00,CLR,,0.00,WeatherDisplay:10.37,2013-01-07 09:47:00,
2013-01-07 03:52:00,29.7,20.8,29.96,SSE,155,16.1,16.1,69,0.00,CLR,,0.00,WeatherDisplay:10.37,2013-01-07 09:52:00,
2013-01-07 03:57:00,29.7,20.8,29.97,SSW,209,20.7,20.7,69,0.00,CLR,,0.00,WeatherDisplay:10.37,2013-01-07 09:57:00,
2013-01-07 04:02:00,29.6,20.7,29.96,West,271,15.0,15.0,69,0.00,CLR,,0.00,WeatherDisplay:10.37,2013-01-07 10:02:00,
2013-01-07 04:07:00,29.4,20.8,29.94,SSW,213,19.6,19.6,70,0.00,CLR,,0.00,WeatherDisplay:10.37,2013-01-07 10:07:00,
2013-01-07 04:12:00,29.2,20.6,29.94,South,171,6.9,6.9,70,0.00,CLR,,0.00,WeatherDisplay:10.37,2013-01-07 10:12:00,
2013-01-07 04:17:00,29.2,20.6,29.95,SW,225,13.8,13.8,70,0.00,CLR,,0.00,WeatherDisplay:10.37,2013-01-07 10:17:00,
2013-01-07 04:22:00,29.0,20.8,29.95,SW,233,11.5,11.5,71,0.00,CLR,,0.00,WeatherDisplay:10.37,2013-01-07 10:22:00,
2013-01-07 04:27:00,29.0,20.8,29.95,SSW,203,19.6,19.6,71,0.00,CLR,,0.00,WeatherDisplay:10.37,2013-01-07 10:27:00,
2013-01-07 04:32:00,29.0,20.8,29.94,WSW,238,20.0,20.0,71,0.00,CLR,,0.00,WeatherDisplay:10.37,2013-01-07 10:32:00,
2013-01-07 04:37:00,28.9,20.7,29.95,WSW,237,20.7,20.7,71,0.00,CLR,,0.00,WeatherDisplay:10.37,2013-01-07 10:37:00,
2013-01-07 04:42:00,28.8,20.6,29.94,SSW,205,23.0,23.0,71,0.00,CLR,,0.00,WeatherDisplay:10.37,2013-01-07 10:42:00,
2013-01-07 04:47:00,28.5,20.6,29.95,SW,226,10.4,10.4,72,0.00,CLR,,0.00,WeatherDisplay:10.37,2013-01-07 10:47:00,
2013-01-07 04:52:00,28.3,20.4,29.95,South,186,21.9,21.9,72,0.00,CLR,,0.00,WeatherDisplay:10.37,2013-01-07 10:52:00,
2013-01-07 04:57:00,28.0,20.5,29.95,SSW,194,17.3,17.3,73,0.00,CLR,,0.00,WeatherDisplay:10.37,2013-01-07 10:57:00,
2013-01-07 05:02:00,27.9,20.4,29.96,SW,221,16.1,16.1,73,0.00,CLR,,0.00,WeatherDisplay:10.37,2013-01-07 11:02:00,
2013-01-07 05:07:00,27.8,20.3,29.95,WSW,237,16.1,16.1,73,0.00,CLR,,0.00,WeatherDisplay:10.37,2013-01-07 11:07:00,
2013-01-07 05:12:00,27.7,20.2,29.96,South,169,6.9,6.9,73,0.00,CLR,,0.00,WeatherDisplay:10.37,2013-01-07 11:12:00,
2013-01-07 05:17:00,27.6,20.4,29.96,SW,222,19.6,19.6,74,0.00,CLR,,0.00,WeatherDisplay:10.37,2013-01-07 11:17:00,
2013-01-07 05:22:00,27.5,20.3,29.95,SW,217,19.6,19.6,74,0.00,CLR,,0.00,WeatherDisplay:10.37,2013-01-07 11:22:00,
2013-01-07 05:27:00,27.5,20.3,29.96,WSW,253,17.3,17.3,74,0.00,CLR,,0.00,WeatherDisplay:10.37,2013-01-07 11:27:00,
2013-01-07 05:32:00,27.4,20.2,29.95,SSW,211,4.6,4.6,74,0.00,CLR,,0.00,WeatherDisplay:10.37,2013-01-07 11:32:00,
2013-01-07 05:37:00,27.4,20.5,29.95,SSW,207,19.6,19.6,75,0.00,CLR,,0.00,WeatherDisplay:10.37,2013-01-07 11:37:00,
2013-01-07 05:42:00,27.3,20.4,29.95,SW,220,15.0,15.0,75,0.00,CLR,,0.00,WeatherDisplay:10.37,2013-01-07 11:42:00,
2013-01-07 05:47:00,27.2,20.3,29.95,SSE,153,9.2,9.2,75,0.00,CLR,,0.00,WeatherDisplay:10.37,2013-01-07 11:47:00,
2013-01-07 05:52:00,27.1,20.2,29.95,SSW,204,11.5,11.5,75,0.00,CLR,,0.00,WeatherDisplay:10.37,2013-01-07 11:52:00,
2013-01-07 05:57:00,27.2,20.6,29.95,South,190,6.9,6.9,76,0.00,CLR,,0.00,WeatherDisplay:10.37,2013-01-07 11:57:00,
2013-01-07 06:02:00,27.1,20.5,29.94,SSW,201,13.8,13.8,76,0.00,CLR,,0.00,WeatherDisplay:10.37,2013-01-07 12:02:00,
2013-01-07 06:07:00,27.1,20.5,29.94,South,188,6.9,6.9,76,0.00,CLR,,0.00,WeatherDisplay:10.37,2013-01-07 12:07:00,
2013-01-07 06:12:00,27.0,20.4,29.95,SSW,202,6.9,6.9,76,0.00,CLR,,0.00,WeatherDisplay:10.37,2013-01-07 12:12:00,
2013-01-07 06:17:00,27.0,20.4,29.95,WSW,257,12.7,12.7,76,0.00,CLR,,0.00,WeatherDisplay:10.37,2013-01-07 12:17:00,
2013-01-07 06:22:00,27.0,20.4,29.95,South,184,6.9,6.9,76,0.00,CLR,,0.00,WeatherDisplay:10.37,2013-01-07 12:22:00,
2013-01-07 06:27:00,27.0,20.4,29.95,SW,226,11.5,11.5,76,0.00,CLR,,0.00,WeatherDisplay:10.37,2013-01-07 12:27:00,
2013-01-07 06:32:00,27.0,20.4,29.95,SSW,196,10.4,10.4,76,0.00,CLR,,0.00,WeatherDisplay:10.37,2013-01-07 12:32:00,
2013-01-07 06:37:00,26.9,20.3,29.96,SSW,203,12.7,12.7,76,0.00,CLR,,0.00,WeatherDisplay:10.37,2013-01-07 12:37:00,
2013-01-07 06:42:00,26.9,20.3,29.96,SW,217,11.5,11.5,76,0.00,CLR,,0.00,WeatherDisplay:10.37,2013-01-07 12:42:00,
2013-01-07 06:47:00,26.9,20.3,29.95,South,172,11.5,11.5,76,0.00,CLR,,0.00,WeatherDisplay:10.37,2013-01-07 12:47:00,
2013-01-07 06:52:00,26.7,20.1,29.95,SSW,200,9.2,9.2,76,0.00,CLR,,0.00,WeatherDisplay:10.37,2013-01-07 12:52:00,
2013-01-07 06:57:00,26.6,20.1,29.96,South,173,11.5,11.5,76,0.00,CLR,,0.00,WeatherDisplay:10.37,2013-01-07 12:57:00,
2013-01-07 07:02:00,26.5,20.0,29.96,SSE,161,11.5,11.5,76,0.00,CLR,,0.00,WeatherDisplay:10.37,2013-01-07 13:02:00,
2013-01-07 07:07:00,26.4,20.2,29.95,SW,217,11.5,11.5,77,0.00,CLR,,0.00,WeatherDisplay:10.37,2013-01-07 13:07:00,
2013-01-07 07:12:00,26.3,20.1,29.96,SW,215,5.8,5.8,77,0.00,CLR,,0.00,WeatherDisplay:10.37,2013-01-07 13:12:00,
2013-01-07 07:17:00,26.2,20.0,29.96,SSW,194,11.5,11.5,77,0.00,CLR,,0.00,WeatherDisplay:10.37,2013-01-07 13:17:00,
2013-01-07 07:22:00,26.2,20.0,29.96,SW,214,5.8,5.8,77,0.00,CLR,,0.00,WeatherDisplay:10.37,2013-01-07 13:22:00,
2013-01-07 07:27:00,26.0,19.8,29.96,South,175,3.5,3.5,77,0.00,CLR,,0.00,WeatherDisplay:10.37,2013-01-07 13:27:00,
2013-01-07 07:32:00,26.0,19.8,29.95,SSW,209,6.9,6.9,77,0.00,CLR,,0.00,WeatherDisplay:10.37,2013-01-07 13:32:00,
2013-01-07 07:37:00,26.0,19.8,29.95,SSW,205,6.0,6.0,77,0.00,CLR,,0.00,WeatherDisplay:10.37,2013-01-07 13:37:00,
2013-01-07 07:42:00,25.9,19.7,29.95,SSW,198,17.3,17.3,77,0.00,CLR,,0.00,WeatherDisplay:10.37,2013-01-07 13:42:00,
2013-01-07 07:47:00,25.8,19.6,29.95,SW,234,5.8,5.8,77,0.00,CLR,,0.00,WeatherDisplay:10.37,2013-01-07 13:47:00,
2013-01-07 07:52:00,25.8,19.6,29.95,South,169,6.9,6.9,77,0.00,CLR,,0.00,WeatherDisplay:10.37,2013-01-07 13:52:00,
2013-01-07 07:57:00,25.8,19.6,29.96,SSW,209,3.5,3.5,77,0.00,CLR,,0.00,WeatherDisplay:10.37,2013-01-07 13:57:00,
2013-01-07 08:02:00,25.7,19.5,29.96,SSW,197,4.6,4.6,77,0.00,CLR,,0.00,WeatherDisplay:10.37,2013-01-07 14:02:00,
2013-01-07 08:07:00,25.6,19.7,29.96,SSW,211,10.4,10.4,78,0.00,CLR,,0.00,WeatherDisplay:10.37,2013-01-07 14:07:00,
2013-01-07 08:12:00,25.6,19.7,29.95,SSW,205,6.9,6.9,78,0.00,CLR,,0.00,WeatherDisplay:10.37,2013-01-07 14:12:00,
2013-01-07 08:17:00,25.6,19.7,29.95,SSW,207,5.8,5.8,78,0.00,CLR,,0.00,WeatherDisplay:10.37,2013-01-07 14:17:00,
2013-01-07 08:22:00,25.7,19.8,29.95,SSW,198,4.0,4.0,78,0.00,CLR,,0.00,WeatherDisplay:10.37,2013-01-07 14:22:00,
2013-01-07 08:27:00,25.8,19.6,29.95,SW,225,4.6,4.6,77,0.00,CLR,,0.00,WeatherDisplay:10.37,2013-01-07 14:27:00,
2013-01-07 08:32:00,25.8,19.6,29.96,SSW,194,4.6,4.6,77,0.00,CLR,,0.00,WeatherDisplay:10.37,2013-01-07 14:32:00,
2013-01-07 08:37:00,25.9,19.7,29.95,SSW,206,4.0,4.0,77,0.00,CLR,,0.00,WeatherDisplay:10.37,2013-01-07 14:37:00,
2013-01-07 08:42:00,25.9,19.7,29.95,SW,215,9.2,9.2,77,0.00,CLR,,0.00,WeatherDisplay:10.37,2013-01-07 14:42:00,
2013-01-07 08:47:00,26.0,19.8,29.95,South,191,5.8,5.8,77,0.00,CLR,,0.00,WeatherDisplay:10.37,2013-01-07 14:47:00,
2013-01-07 08:52:00,26.0,19.8,29.95,SW,226,5.8,5.8,77,0.00,CLR,,0.00,WeatherDisplay:10.37,2013-01-07 14:52:00,
2013-01-07 08:57:00,26.1,19.9,29.95,SSW,193,6.9,6.9,77,0.00,CLR,,0.00,WeatherDisplay:10.37,2013-01-07 14:57:00,
2013-01-07 09:02:00,26.2,20.0,29.95,SW,217,5.8,5.8,77,0.00,CLR,,0.00,WeatherDisplay:10.37,2013-01-07 15:02:00,
2013-01-07 09:07:00,26.3,20.1,29.95,South,179,11.5,11.5,77,0.00,CLR,,0.00,WeatherDisplay:10.37,2013-01-07 15:07:00,
2013-01-07 09:12:00,26.5,20.0,29.95,SSE,165,6.9,6.9,76,0.00,CLR,,0.00,WeatherDisplay:10.37,2013-01-07 15:12:00,
2013-01-07 09:17:00,26.4,19.9,29.95,SSW,207,12.7,12.7,76,0.00,CLR,,0.00,WeatherDisplay:10.37,2013-01-07 15:17:00,
2013-01-07 09:22:00,26.5,20.0,29.96,SSE,167,10.4,10.4,76,0.00,CLR,,0.00,WeatherDisplay:10.37,2013-01-07 15:22:00,
2013-01-07 09:27:00,26.7,20.1,29.96,SSW,194,4.6,4.6,76,0.00,CLR,,0.00,WeatherDisplay:10.37,2013-01-07 15:27:00,
2013-01-07 09:32:00,27.0,20.4,29.96,SW,219,6.9,6.9,76,0.00,CLR,,0.00,WeatherDisplay:10.37,2013-01-07 15:32:00,
2013-01-07 09:37:00,27.1,20.5,29.96,SW,215,6.9,6.9,76,0.00,CLR,,0.00,WeatherDisplay:10.37,2013-01-07 15:37:00,
2013-01-07 09:42:00,27.3,20.4,29.97,WSW,238,8.0,8.0,75,0.00,CLR,,0.00,WeatherDisplay:10.37,2013-01-07 15:42:00,
2013-01-07 09:47:00,27.5,20.6,29.97,SW,220,17.3,17.3,75,0.00,CLR,,0.00,WeatherDisplay:10.37,2013-01-07 15:47:00,
2013-01-07 09:52:00,27.8,20.9,29.98,SW,222,19.6,19.6,75,0.00,CLR,,0.00,WeatherDisplay:10.37,2013-01-07 15:52:00,
2013-01-07 09:57:00,28.1,20.9,29.97,SW,231,12.7,12.7,74,0.00,CLR,,0.00,WeatherDisplay:10.37,2013-01-07 15:57:00,
2013-01-07 10:02:00,28.1,20.9,29.97,SSW,210,12.7,12.7,74,0.00,CLR,,0.00,WeatherDisplay:10.37,2013-01-07 16:02:00,
2013-01-07 10:07:00,28.1,20.9,29.97,WSW,239,19.6,19.6,74,0.00,CLR,,0.00,WeatherDisplay:10.37,2013-01-07 16:07:00,
2013-01-07 10:12:00,28.0,20.8,29.99,West,266,15.0,15.0,74,0.00,CLR,,0.00,WeatherDisplay:10.37,2013-01-07 16:12:00,
2013-01-07 10:17:00,28.1,21.2,29.99,SW,214,5.8,5.8,75,0.00,CLR,,0.00,WeatherDisplay:10.37,2013-01-07 16:17:00,
2013-01-07 10:22:00,28.1,20.9,29.99,WSW,242,9.2,9.2,74,0.00,CLR,,0.00,WeatherDisplay:10.37,2013-01-07 16:22:00,
2013-01-07 10:27:00,28.1,20.9,29.99,SW,221,16.1,16.1,74,0.00,CLR,,0.00,WeatherDisplay:10.37,2013-01-07 16:27:00,
2013-01-07 10:32:00,28.1,21.2,29.98,SW,218,5.8,5.8,75,0.00,CLR,,0.00,WeatherDisplay:10.37,2013-01-07 16:32:00,
2013-01-07 10:37:00,28.6,21.7,29.98,WSW,250,2.3,2.3,75,0.00,CLR,,0.00,WeatherDisplay:10.37,2013-01-07 16:37:00,
2013-01-07 10:42:00,29.0,21.4,29.99,West,263,5.8,5.8,73,0.00,CLR,,0.00,WeatherDisplay:10.37,2013-01-07 16:42:00,
2013-01-07 10:47:00,29.2,21.6,29.99,SW,225,3.5,3.5,73,0.00,CLR,,0.00,WeatherDisplay:10.37,2013-01-07 16:47:00,
2013-01-07 10:52:00,29.5,21.9,29.99,SSW,206,5.8,5.8,73,0.00,CLR,,0.00,WeatherDisplay:10.37,2013-01-07 16:52:00,
2013-01-07 10:57:00,29.5,21.6,29.98,WSW,248,11.5,11.5,72,0.00,CLR,,0.00,WeatherDisplay:10.37,2013-01-07 16:57:00,
2013-01-07 11:02:00,29.2,21.6,29.98,SSW,213,5.8,5.8,73,0.00,CLR,,0.00,WeatherDisplay:10.37,2013-01-07 17:02:00,
2013-01-07 11:07:00,29.2,21.6,29.98,SW,223,8.1,8.1,73,0.00,CLR,,0.00,WeatherDisplay:10.37,2013-01-07 17:07:00,
2013-01-07 11:12:00,29.1,21.8,29.98,SSW,195,4.0,4.0,74,0.00,CLR,,0.00,WeatherDisplay:10.37,2013-01-07 17:12:00,
2013-01-07 11:17:00,29.2,21.6,29.97,SSW,200,11.5,11.5,73,0.00,CLR,,0.00,WeatherDisplay:10.37,2013-01-07 17:17:00,
2013-01-07 11:22:00,29.6,22.3,29.97,WNW,285,10.4,10.4,74,0.00,CLR,,0.00,WeatherDisplay:10.37,2013-01-07 17:22:00,
2013-01-07 11:27:00,29.8,22.2,29.97,SSW,203,10.4,10.4,73,0.00,CLR,,0.00,WeatherDisplay:10.37,2013-01-07 17:27:00,
2013-01-07 11:32:00,29.6,22.0,29.97,SW,233,13.8,13.8,73,0.00,CLR,,0.00,WeatherDisplay:10.37,2013-01-07 17:32:00,
2013-01-07 11:37:00,29.6,22.3,29.96,SW,223,9.2,9.2,74,0.00,CLR,,0.00,WeatherDisplay:10.37,2013-01-07 17:37:00,
2013-01-07 11:42:00,29.7,22.4,29.96,SSW,205,9.2,9.2,74,0.00,CLR,,0.00,WeatherDisplay:10.37,2013-01-07 17:42:00,
2013-01-07 11:47:00,30.0,22.4,29.97,SSW,196,11.5,11.5,73,0.00,CLR,,0.00,WeatherDisplay:10.37,2013-01-07 17:47:00,
2013-01-07 11:52:00,30.3,22.7,29.96,West,260,7.0,7.0,73,0.00,CLR,,0.00,WeatherDisplay:10.37,2013-01-07 17:52:00,
2013-01-07 11:57:00,30.6,23.0,29.96,SW,225,2.3,3.0,73,0.00,CLR,,0.00,WeatherDisplay:10.37,2013-01-07 17:57:00,
2013-01-07 12:02:00,30.9,22.9,29.96,West,275,6.9,6.9,72,0.00,CLR,,0.00,WeatherDisplay:10.37,2013-01-07 18:02:00,
2013-01-07 12:07:00,31.4,23.1,29.96,SW,215,4.6,4.6,71,0.00,CLR,,0.00,WeatherDisplay:10.37,2013-01-07 18:07:00,
2013-01-07 12:12:00,31.7,23.0,29.96,SW,232,12.7,12.7,70,0.00,CLR,,0.00,WeatherDisplay:10.37,2013-01-07 18:12:00,
2013-01-07 12:17:00,31.7,23.0,29.95,WSW,252,6.9,6.9,70,0.00,CLR,,0.00,WeatherDisplay:10.37,2013-01-07 18:17:00,
2013-01-07 12:22:00,31.9,23.2,29.95,SW,227,10.4,10.4,70,0.00,CLR,,0.00,WeatherDisplay:10.37,2013-01-07 18:22:00,
2013-01-07 12:27:00,31.8,22.8,29.95,WSW,243,11.5,11.5,69,0.00,CLR,,0.00,WeatherDisplay:10.37,2013-01-07 18:27:00,
2013-01-07 12:32:00,32.0,23.0,29.95,WSW,240,11.5,11.5,69,0.00,CLR,,0.00,WeatherDisplay:10.37,2013-01-07 18:32:00,
2013-01-07 12:38:00,32.0,23.3,29.95,SSW,207,6.9,6.9,70,0.00,CLR,,0.00,WeatherDisplay:10.37,2013-01-07 18:38:00,
2013-01-07 12:43:00,32.4,23.4,29.95,SSW,207,9.2,9.2,69,0.00,CLR,,0.00,WeatherDisplay:10.37,2013-01-07 18:43:00,
2013-01-07 12:48:00,33.0,23.6,29.95,SSW,194,10.4,10.4,68,0.00,CLR,,0.00,WeatherDisplay:10.37,2013-01-07 18:48:00,
2013-01-07 12:53:00,33.2,23.8,29.95,West,263,6.9,6.9,68,0.00,CLR,,0.00,WeatherDisplay:10.37,2013-01-07 18:53:00,
2013-01-07 12:58:00,33.6,23.8,29.95,SW,222,8.1,8.1,67,0.00,CLR,,0.00,WeatherDisplay:10.37,2013-01-07 18:58:00,
2013-01-07 13:03:00,34.0,24.2,29.94,SSW,202,7.0,7.0,67,0.00,CLR,,0.00,WeatherDisplay:10.37,2013-01-07 19:03:00,
2013-01-07 13:08:00,34.1,24.3,29.94,SW,214,4.6,4.6,67,0.01,RA,,0.01,WeatherDisplay:10.37,2013-01-07 19:08:00,
2013-01-07 13:13:00,34.0,23.8,29.94,SSW,211,8.1,8.1,66,0.01,RA,,0.01,WeatherDisplay:10.37,2013-01-07 19:13:00,
2013-01-07 13:18:00,34.3,24.1,29.94,SW,227,4.6,4.6,66,0.01,CLR,,0.01,WeatherDisplay:10.37,2013-01-07 19:18:00,
2013-01-07 13:23:00,34.4,24.2,29.94,SW,221,5.8,5.8,66,0.01,CLR,,0.01,WeatherDisplay:10.37,2013-01-07 19:23:00,
2013-01-07 13:28:00,34.4,24.2,29.94,SW,215,11.5,11.5,66,0.01,CLR,,0.01,WeatherDisplay:10.37,2013-01-07 19:28:00,
2013-01-07 13:33:00,34.6,24.4,29.94,SSW,199,5.8,5.8,66,0.01,CLR,,0.01,WeatherDisplay:10.37,2013-01-07 19:33:00,
2013-01-07 13:38:00,35.2,24.6,29.94,SW,236,1.1,1.1,65,0.01,CLR,,0.01,WeatherDisplay:10.37,2013-01-07 19:38:00,
2013-01-07 13:43:00,35.4,24.4,29.94,SW,227,6.9,6.9,64,0.01,CLR,,0.01,WeatherDisplay:10.37,2013-01-07 19:43:00,
2013-01-07 13:48:00,35.3,24.7,29.95,WSW,242,6.9,6.9,65,0.01,CLR,,0.01,WeatherDisplay:10.37,2013-01-07 19:48:00,
2013-01-07 13:53:00,35.3,24.7,29.94,South,188,5.8,5.8,65,0.01,CLR,,0.01,WeatherDisplay:10.37,2013-01-07 19:53:00,
2013-01-07 13:58:00,35.5,24.5,29.95,West,267,8.1,8.1,64,0.01,CLR,,0.01,WeatherDisplay:10.37,2013-01-07 19:58:00,
2013-01-07 14:03:00,35.5,24.5,29.95,SSW,192,6.9,6.9,64,0.01,CLR,,0.01,WeatherDisplay:10.37,2013-01-07 20:03:00,
2013-01-07 14:08:00,35.5,24.5,29.95,SW,231,5.8,5.8,64,0.00,CLR,,0.01,WeatherDisplay:10.37,2013-01-07 20:08:00,
2013-01-07 14:13:00,35.4,24.8,29.95,SW,223,6.9,6.9,65,0.00,CLR,,0.01,WeatherDisplay:10.37,2013-01-07 20:13:00,
2013-01-07 14:18:00,35.4,24.8,29.95,South,173,6.9,6.9,65,0.00,CLR,,0.01,WeatherDisplay:10.37,2013-01-07 20:18:00,
2013-01-07 14:19:00,35.4,24.8,29.95,SSW,210,9.2,9.2,65,0.00,CLR,,0.01,WeatherDisplay:10.37,2013-01-07 20:19:00,
2013-01-07 14:24:00,35.5,24.9,29.95,SSW,202,12.7,12.7,65,0.00,CLR,,0.01,WeatherDisplay:10.37,2013-01-07 20:24:00,
2013-01-07 14:29:00,35.5,24.9,29.95,SSW,196,5.8,5.8,65,0.00,CLR,,0.01,WeatherDisplay:10.37,2013-01-07 20:29:00,
2013-01-07 14:34:00,35.6,25.0,29.96,SW,221,10.4,10.4,65,0.00,CLR,,0.01,WeatherDisplay:10.37,2013-01-07 20:34:00,
2013-01-07 14:39:00,35.4,24.8,29.96,SW,228,10.4,10.4,65,0.00,CLR,,0.01,WeatherDisplay:10.37,2013-01-07 20:39:00,
2013-01-07 14:44:00,35.4,25.2,29.96,SW,219,4.6,4.6,66,0.00,CLR,,0.01,WeatherDisplay:10.37,2013-01-07 20:44:00,
2013-01-07 14:49:00,35.9,25.3,29.96,SW,222,9.2,9.2,65,0.00,CLR,,0.01,WeatherDisplay:10.37,2013-01-07 20:49:00,
2013-01-07 14:54:00,36.2,25.2,29.96,WSW,241,5.8,5.8,64,0.00,CLR,,0.01,WeatherDisplay:10.37,2013-01-07 20:54:00,
2013-01-07 14:59:00,36.1,25.1,29.96,SSW,205,6.9,6.9,64,0.00,CLR,,0.01,WeatherDisplay:10.37,2013-01-07 20:59:00,
2013-01-07 15:04:00,36.4,25.4,29.96,SW,221,4.6,4.6,64,0.00,CLR,,0.01,WeatherDisplay:10.37,2013-01-07 21:04:00,
2013-01-07 15:09:00,36.0,25.0,29.96,SSW,209,5.8,5.8,64,0.00,CLR,,0.01,WeatherDisplay:10.37,2013-01-07 21:09:00,
2013-01-07 15:14:00,35.9,25.3,29.96,SW,233,5.8,5.8,65,0.00,CLR,,0.01,WeatherDisplay:10.37,2013-01-07 21:14:00,
2013-01-07 15:19:00,36.1,25.5,29.96,SSW,213,5.8,5.8,65,0.00,CLR,,0.01,WeatherDisplay:10.37,2013-01-07 21:19:00,
2013-01-07 15:24:00,36.3,25.3,29.97,SW,217,4.6,4.6,64,0.00,CLR,,0.01,WeatherDisplay:10.37,2013-01-07 21:24:00,
2013-01-07 15:29:00,36.4,25.4,29.96,SW,220,3.0,3.0,64,0.00,CLR,,0.01,WeatherDisplay:10.37,2013-01-07 21:29:00,
2013-01-07 15:34:00,36.2,25.6,29.96,SW,219,0.0,1.3,65,0.00,CLR,,0.01,WeatherDisplay:10.37,2013-01-07 21:34:00,
2013-01-07 15:39:00,35.8,24.8,29.97,SW,230,10.4,10.4,64,0.00,CLR,,0.01,WeatherDisplay:10.37,2013-01-07 21:39:00,
2013-01-07 15:44:00,35.6,25.4,29.97,SSW,210,2.3,2.3,66,0.00,CLR,,0.01,WeatherDisplay:10.37,2013-01-07 21:44:00,
2013-01-07 15:49:00,35.5,25.3,29.97,South,186,3.5,3.5,66,0.00,CLR,,0.01,WeatherDisplay:10.37,2013-01-07 21:49:00,
2013-01-07 15:54:00,35.5,25.3,29.97,SW,223,4.6,4.6,66,0.00,CLR,,0.01,WeatherDisplay:10.37,2013-01-07 21:54:00,
2013-01-07 15:59:00,35.3,25.1,29.97,SW,223,6.9,6.9,66,0.01,RA,,0.02,WeatherDisplay:10.37,2013-01-07 21:59:00,
2013-01-07 16:04:00,35.1,25.2,29.97,SW,230,3.5,3.5,67,0.01,RA,,0.02,WeatherDisplay:10.37,2013-01-07 22:04:00,
2013-01-07 16:09:00,34.9,25.0,29.97,SW,234,2.3,2.3,67,0.01,,,0.02,WeatherDisplay:10.37,2013-01-07 22:09:00,
2013-01-07 16:14:00,34.7,24.9,29.98,SW,221,2.0,2.0,67,0.01,CLR,,0.02,WeatherDisplay:10.37,2013-01-07 22:14:00,
2013-01-07 16:19:00,34.4,24.6,29.98,SW,219,3.5,3.5,67,0.01,CLR,,0.02,WeatherDisplay:10.37,2013-01-07 22:19:00,
2013-01-07 16:24:00,34.4,24.9,29.98,SW,220,3.5,0.0,68,0.01,CLR,,0.02,WeatherDisplay:10.37,2013-01-07 22:24:00,
2013-01-07 16:29:00,34.2,24.7,29.98,SW,221,0.0,0.0,68,0.01,CLR,,0.02,WeatherDisplay:10.37,2013-01-07 22:29:00,
2013-01-07 16:34:00,33.8,24.7,29.98,SW,223,4.6,4.6,69,0.01,CLR,,0.02,WeatherDisplay:10.37,2013-01-07 22:34:00,
2013-01-07 16:39:00,33.3,24.2,29.98,SSW,199,2.3,2.3,69,0.01,CLR,,0.02,WeatherDisplay:10.37,2013-01-07 22:39:00,
2013-01-07 16:44:00,32.8,24.1,29.98,SSW,195,4.6,4.6,70,0.01,CLR,,0.02,WeatherDisplay:10.37,2013-01-07 22:44:00,
2013-01-07 16:49:00,32.4,24.0,29.98,SW,229,3.5,3.5,71,0.01,CLR,,0.02,WeatherDisplay:10.37,2013-01-07 22:49:00,
2013-01-07 16:54:00,32.0,24.0,29.98,SW,219,4.6,4.6,72,0.01,CLR,,0.02,WeatherDisplay:10.37,2013-01-07 22:54:00,
2013-01-07 16:59:00,31.8,24.1,29.98,South,174,4.6,4.6,73,0.00,CLR,,0.02,WeatherDisplay:10.37,2013-01-07 22:59:00,
2013-01-07 17:04:00,31.5,23.8,29.99,SSW,197,5.8,5.8,73,0.00,CLR,,0.02,WeatherDisplay:10.37,2013-01-07 23:04:00,
2013-01-07 17:09:00,31.3,24.0,29.98,SSW,205,0.0,0.2,74,0.00,CLR,,0.02,WeatherDisplay:10.37,2013-01-07 23:09:00,
2013-01-07 17:15:00,31.1,23.8,29.98,SSW,212,4.0,4.0,74,0.00,CLR,,0.02,WeatherDisplay:10.37,2013-01-07 23:15:00,
2013-01-07 17:20:00,31.0,24.0,29.99,SW,225,4.6,4.6,75,0.00,CLR,,0.02,WeatherDisplay:10.37,2013-01-07 23:20:00,
2013-01-07 17:25:00,30.8,23.8,29.99,SSW,206,3.5,3.5,75,0.00,CLR,,0.02,WeatherDisplay:10.37,2013-01-07 23:25:00,
2013-01-07 17:30:00,30.7,23.7,29.99,South,181,3.5,3.5,75,0.00,CLR,,0.02,WeatherDisplay:10.37,2013-01-07 23:30:00,
2013-01-07 17:35:00,30.5,23.5,29.99,SW,221,3.5,3.5,75,0.00,CLR,,0.02,WeatherDisplay:10.37,2013-01-07 23:35:00,
2013-01-07 17:40:00,30.5,23.5,29.99,SW,220,0.0,0.0,75,0.00,CLR,,0.02,WeatherDisplay:10.37,2013-01-07 23:40:00,
2013-01-07 17:45:00,30.4,23.7,29.99,SSW,210,2.3,2.3,76,0.00,CLR,,0.02,WeatherDisplay:10.37,2013-01-07 23:45:00,
2013-01-07 17:50:00,30.2,23.5,29.99,SSW,211,4.6,4.6,76,0.00,CLR,,0.02,WeatherDisplay:10.37,2013-01-07 23:50:00,
2013-01-07 17:55:00,30.1,23.4,29.99,South,183,4.6,4.6,76,0.00,CLR,,0.02,WeatherDisplay:10.37,2013-01-07 23:55:00,
2013-01-07 18:00:00,30.0,23.4,29.99,SSW,210,0.0,0.0,76,0.00,CLR,,0.02,WeatherDisplay:10.37,2013-01-08 00:00:00,
2013-01-07 18:05:00,29.8,23.5,29.99,SW,229,4.6,4.6,77,0.00,CLR,,0.02,WeatherDisplay:10.37,2013-01-08 00:05:00,
2013-01-07 18:10:00,29.8,23.5,29.99,SW,219,3.5,3.5,77,0.00,CLR,,0.02,WeatherDisplay:10.37,2013-01-08 00:10:00,
2013-01-07 18:15:00,29.6,23.3,29.99,SSW,200,3.5,3.5,77,0.00,CLR,,0.02,WeatherDisplay:10.37,2013-01-08 00:15:00,
2013-01-07 18:20:00,29.5,23.2,29.99,South,188,3.5,3.5,77,0.00,CLR,,0.02,WeatherDisplay:10.37,2013-01-08 00:20:00,
2013-01-07 18:25:00,29.4,23.4,30.00,SSW,205,5.8,5.8,78,0.00,CLR,,0.02,WeatherDisplay:10.37,2013-01-08 00:25:00,
2013-01-07 18:30:00,29.4,23.4,30.00,SW,225,3.5,3.5,78,0.00,CLR,,0.02,WeatherDisplay:10.37,2013-01-08 00:30:00,
2013-01-07 18:35:00,29.4,23.4,30.00,SW,226,1.1,0.0,78,0.00,CLR,,0.02,WeatherDisplay:10.37,2013-01-08 00:35:00,
2013-01-07 18:40:00,29.2,23.2,30.00,SW,219,3.5,3.5,78,0.00,CLR,,0.02,WeatherDisplay:10.37,2013-01-08 00:40:00,
2013-01-07 18:45:00,29.1,23.4,30.00,SW,215,3.5,3.5,79,0.00,CLR,,0.02,WeatherDisplay:10.37,2013-01-08 00:45:00,
2013-01-07 18:50:00,29.1,23.4,30.00,SW,220,2.3,2.3,79,0.00,CLR,,0.02,WeatherDisplay:10.37,2013-01-08 00:50:00,
2013-01-07 18:55:00,29.0,23.3,29.99,SW,226,3.5,3.5,79,0.00,CLR,,0.02,WeatherDisplay:10.37,2013-01-08 00:55:00,
2013-01-07 19:00:00,28.9,23.2,30.00,SSW,202,5.8,5.8,79,0.00,CLR,,0.02,WeatherDisplay:10.37,2013-01-08 01:00:00,
2013-01-07 19:05:00,28.9,23.5,30.00,SSW,192,4.6,4.6,80,0.00,CLR,,0.02,WeatherDisplay:10.37,2013-01-08 01:05:00,
2013-01-07 19:10:00,28.8,23.1,30.00,South,191,3.5,3.5,79,0.00,CLR,,0.02,WeatherDisplay:10.37,2013-01-08 01:10:00,
2013-01-07 19:15:00,28.8,23.4,29.99,SW,230,5.8,5.8,80,0.00,CLR,,0.02,WeatherDisplay:10.37,2013-01-08 01:15:00,
2013-01-07 19:20:00,28.7,23.3,29.99,WSW,239,5.8,5.8,80,0.00,CLR,,0.02,WeatherDisplay:10.37,2013-01-08 01:20:00,
2013-01-07 19:25:00,28.6,23.2,29.99,SSW,205,3.5,3.5,80,0.00,CLR,,0.02,WeatherDisplay:10.37,2013-01-08 01:25:00,
2013-01-07 19:30:00,28.4,23.0,29.99,SSW,207,4.6,4.6,80,0.00,CLR,,0.02,WeatherDisplay:10.37,2013-01-08 01:30:00,
2013-01-07 19:35:00,28.3,22.9,29.99,SSW,193,4.6,4.6,80,0.00,CLR,,0.02,WeatherDisplay:10.37,2013-01-08 01:35:00,
2013-01-07 19:40:00,28.1,23.0,29.99,SW,223,4.6,4.6,81,0.00,CLR,,0.02,WeatherDisplay:10.37,2013-01-08 01:40:00,
2013-01-07 19:45:00,28.0,22.9,29.99,SSW,211,3.5,3.5,81,0.00,CLR,,0.02,WeatherDisplay:10.37,2013-01-08 01:45:00,
2013-01-07 19:50:00,27.8,22.7,29.99,SSW,202,4.6,4.6,81,0.00,CLR,,0.02,WeatherDisplay:10.37,2013-01-08 01:50:00,
2013-01-07 19:55:00,27.6,22.5,29.99,SW,229,3.5,3.5,81,0.00,CLR,,0.02,WeatherDisplay:10.37,2013-01-08 01:55:00,
2013-01-07 20:00:00,27.4,22.3,29.99,SSW,207,3.5,3.5,81,0.00,CLR,,0.02,WeatherDisplay:10.37,2013-01-08 02:00:00,
2013-01-07 20:05:00,27.3,22.5,29.99,SW,219,3.5,3.5,82,0.00,CLR,,0.02,WeatherDisplay:10.37,2013-01-08 02:05:00,
2013-01-07 20:10:00,27.2,22.4,29.99,SSW,213,5.0,5.0,82,0.00,CLR,,0.02,WeatherDisplay:10.37,2013-01-08 02:10:00,
2013-01-07 20:15:00,27.1,22.3,29.99,SW,218,3.5,3.5,82,0.00,CLR,,0.02,WeatherDisplay:10.37,2013-01-08 02:15:00,
2013-01-07 20:20:00,27.1,22.6,29.99,SSW,213,3.5,3.5,83,0.00,CLR,,0.02,WeatherDisplay:10.37,2013-01-08 02:20:00,
2013-01-07 20:25:00,27.0,22.5,29.99,SSW,211,3.5,3.5,83,0.00,CLR,,0.02,WeatherDisplay:10.37,2013-01-08 02:25:00,
2013-01-07 20:30:00,26.9,22.4,29.99,SSW,199,4.6,4.6,83,0.00,CLR,,0.02,WeatherDisplay:10.37,2013-01-08 02:30:00,
2013-01-07 20:35:00,26.9,22.4,29.99,SSW,199,1.1,1.1,83,0.00,CLR,,0.02,WeatherDisplay:10.37,2013-01-08 02:35:00,
2013-01-07 20:40:00,26.8,22.3,29.99,South,187,3.5,3.5,83,0.00,CLR,,0.02,WeatherDisplay:10.37,2013-01-08 02:40:00,
2013-01-07 20:45:00,26.6,22.1,29.99,SSW,192,4.6,4.6,83,0.00,CLR,,0.02,WeatherDisplay:10.37,2013-01-08 02:45:00,
2013-01-07 20:50:00,26.5,22.0,29.99,SSW,195,4.6,4.6,83,0.00,CLR,,0.02,WeatherDisplay:10.37,2013-01-08 02:50:00,
2013-01-07 20:55:00,26.4,22.2,29.98,SSW,198,5.8,5.8,84,0.00,CLR,,0.02,WeatherDisplay:10.37,2013-01-08 02:55:00,
2013-01-07 21:00:00,26.3,22.1,29.99,SSW,205,3.5,3.5,84,0.00,CLR,,0.02,WeatherDisplay:10.37,2013-01-08 03:00:00,
2013-01-07 21:05:00,26.3,22.1,29.99,SSW,205,0.0,0.0,84,0.00,CLR,,0.02,WeatherDisplay:10.37,2013-01-08 03:05:00,
2013-01-07 21:10:00,26.3,22.1,29.99,SSW,205,0.0,0.0,84,0.00,CLR,,0.02,WeatherDisplay:10.37,2013-01-08 03:10:00,
2013-01-07 21:15:00,26.3,22.1,29.99,SSW,205,3.5,3.5,84,0.00,CLR,,0.02,WeatherDisplay:10.37,2013-01-08 03:15:00,
2013-01-07 21:20:00,26.3,22.1,29.99,SSW,205,4.6,4.6,84,0.00,CLR,,0.02,WeatherDisplay:10.37,2013-01-08 03:20:00,
2013-01-07 21:25:00,26.2,22.0,29.99,SSW,206,4.6,4.6,84,0.00,CLR,,0.02,WeatherDisplay:10.37,2013-01-08 03:25:00,
2013-01-07 21:30:00,26.2,22.0,29.99,SSW,207,3.5,3.5,84,0.00,CLR,,0.02,WeatherDisplay:10.37,2013-01-08 03:30:00,
2013-01-07 21:35:00,26.2,22.0,29.99,SSW,207,4.6,4.6,84,0.00,CLR,,0.02,WeatherDisplay:10.37,2013-01-08 03:35:00,
2013-01-07 21:40:00,26.3,22.4,29.99,SSW,207,3.5,3.5,85,0.00,CLR,,0.02,WeatherDisplay:10.37,2013-01-08 03:40:00,
2013-01-07 21:45:00,26.4,22.2,30.00,SSW,199,6.9,6.9,84,0.00,CLR,,0.02,WeatherDisplay:10.37,2013-01-08 03:45:00,
2013-01-07 21:50:00,26.4,22.2,30.00,SW,221,6.9,6.9,84,0.00,CLR,,0.02,WeatherDisplay:10.37,2013-01-08 03:50:00,
2013-01-07 21:55:00,26.3,22.1,30.00,SSW,203,3.5,3.7,84,0.00,CLR,,0.02,WeatherDisplay:10.37,2013-01-08 03:55:00,
2013-01-07 22:00:00,26.3,22.1,29.99,SSW,209,5.8,5.8,84,0.00,CLR,,0.02,WeatherDisplay:10.37,2013-01-08 04:00:00,
2013-01-07 22:05:00,26.2,22.0,29.99,SW,234,5.8,5.8,84,0.00,CLR,,0.02,WeatherDisplay:10.37,2013-01-08 04:05:00,
2013-01-07 22:10:00,26.2,22.0,29.99,SSW,207,4.6,4.6,84,0.00,CLR,,0.02,WeatherDisplay:10.37,2013-01-08 04:10:00,
2013-01-07 22:15:00,26.0,21.8,29.99,South,176,0.0,1.7,84,0.00,CLR,,0.02,WeatherDisplay:10.37,2013-01-08 04:15:00,
2013-01-07 22:20:00,25.9,21.7,30.00,South,181,2.3,0.0,84,0.00,CLR,,0.02,WeatherDisplay:10.37,2013-01-08 04:20:00,
2013-01-07 22:25:00,26.0,21.8,30.00,South,191,3.5,3.5,84,0.00,CLR,,0.02,WeatherDisplay:10.37,2013-01-08 04:25:00,
2013-01-07 22:30:00,26.0,21.8,30.00,SSW,202,0.0,2.7,84,0.00,CLR,,0.02,WeatherDisplay:10.37,2013-01-08 04:30:00,
2013-01-07 22:36:00,26.0,21.8,30.00,SW,220,4.6,4.6,84,0.00,CLR,,0.02,WeatherDisplay:10.37,2013-01-08 04:36:00,
2013-01-07 22:41:00,25.9,21.7,30.00,SSW,211,4.6,4.6,84,0.00,CLR,,0.02,WeatherDisplay:10.37,2013-01-08 04:41:00,
2013-01-07 22:46:00,25.8,21.6,30.00,SSW,198,0.0,0.0,84,0.00,CLR,,0.02,WeatherDisplay:10.37,2013-01-08 04:46:00,
2013-01-07 22:51:00,25.7,21.5,30.00,SSW,202,3.5,3.5,84,0.00,CLR,,0.02,WeatherDisplay:10.37,2013-01-08 04:51:00,
2013-01-07 22:56:00,25.6,21.7,30.00,SSW,213,4.6,4.6,85,0.00,CLR,,0.02,WeatherDisplay:10.37,2013-01-08 04:56:00,
2013-01-07 23:00:00,25.6,21.7,30.00,SSW,213,0.0,0.7,85,0.00,CLR,,0.02,WeatherDisplay:10.37,2013-01-08 05:00:00,
2013-01-07 23:02:00,25.6,21.7,30.01,SSW,213,3.5,3.5,85,0.00,CLR,,0.02,WeatherDisplay:10.37,2013-01-08 05:02:00,
2013-01-07 23:03:00,25.6,21.7,30.01,SSW,213,5.8,5.8,85,0.00,CLR,,0.02,WeatherDisplay:10.37,2013-01-08 05:03:00,
2013-01-07 23:08:00,25.5,21.6,30.00,SSW,213,0.0,0.0,85,0.00,CLR,,0.02,WeatherDisplay:10.37,2013-01-08 05:08:00,
2013-01-07 23:13:00,25.5,21.6,30.00,SW,220,2.0,2.0,85,0.00,CLR,,0.02,WeatherDisplay:10.37,2013-01-08 05:13:00,
2013-01-07 23:18:00,25.4,21.5,30.01,SSW,206,5.8,5.8,85,0.00,CLR,,0.02,WeatherDisplay:10.37,2013-01-08 05:18:00,
2013-01-07 23:23:00,25.4,21.5,30.00,SW,215,4.6,4.6,85,0.00,CLR,,0.02,WeatherDisplay:10.37,2013-01-08 05:23:00,
2013-01-07 23:28:00,25.4,21.5,30.00,SSW,195,5.0,5.0,85,0.00,CLR,,0.02,WeatherDisplay:10.37,2013-01-08 05:28:00,
2013-01-07 23:33:00,25.2,21.3,30.00,SW,215,3.5,3.5,85,0.00,CLR,,0.02,WeatherDisplay:10.37,2013-01-08 05:33:00,
2013-01-07 23:38:00,25.1,21.2,30.00,SW,215,3.5,3.5,85,0.00,CLR,,0.02,WeatherDisplay:10.37,2013-01-08 05:38:00,
2013-01-07 23:43:00,24.9,21.0,30.00,SW,232,3.5,3.5,85,0.00,CLR,,0.02,WeatherDisplay:10.37,2013-01-08 05:43:00,
2013-01-07 23:48:00,24.8,20.9,30.01,SW,219,3.5,3.5,85,0.00,CLR,,0.02,WeatherDisplay:10.37,2013-01-08 05:48:00,
2013-01-07 23:53:00,24.7,20.8,30.01,SW,232,3.5,3.5,85,0.00,CLR,,0.02,WeatherDisplay:10.37,2013-01-08 05:53:00,
2013-01-07 23:58:00,24.5,20.6,30.01,SW,232,0.0,0.0,85,0.00,CLR,,0.02,WeatherDisplay:10.37,2013-01-08 05:58:00,